sensor_id;sensor_type;location;lat;lon;timestamp;temperature;humidity
40538;DHT22;27925;41.874;12.526;2023-07-31T00:00:27;28.00;79.20
40538;DHT22;27925;41.874;12.526;2023-07-31T00:02:53;28.00;79.20
40538;DHT22;27925;41.874;12.526;2023-07-31T00:05:19;28.00;79.20
40538;DHT22;27925;41.874;12.526;2023-07-31T00:07:45;27.90;79.30
40538;DHT22;27925;41.874;12.526;2023-07-31T00:10:11;27.90;79.50
40538;DHT22;27925;41.874;12.526;2023-07-31T00:12:39;27.90;79.80
40538;DHT22;27925;41.874;12.526;2023-07-31T00:15:06;27.80;79.70
40538;DHT22;27925;41.874;12.526;2023-07-31T00:17:32;27.90;79.50
40538;DHT22;27925;41.874;12.526;2023-07-31T00:19:58;27.90;79.40
40538;DHT22;27925;41.874;12.526;2023-07-31T00:22:23;27.90;78.90
40538;DHT22;27925;41.874;12.526;2023-07-31T00:24:49;27.90;78.40
40538;DHT22;27925;41.874;12.526;2023-07-31T00:27:15;27.90;78.70
40538;DHT22;27925;41.874;12.526;2023-07-31T00:29:41;27.90;78.70
40538;DHT22;27925;41.874;12.526;2023-07-31T00:32:07;27.80;79.00
40538;DHT22;27925;41.874;12.526;2023-07-31T00:34:33;27.80;78.90
40538;DHT22;27925;41.874;12.526;2023-07-31T00:36:58;27.70;79.00
40538;DHT22;27925;41.874;12.526;2023-07-31T00:39:24;27.60;79.00
40538;DHT22;27925;41.874;12.526;2023-07-31T00:41:49;27.60;78.70
40538;DHT22;27925;41.874;12.526;2023-07-31T00:44:15;27.50;78.80
40538;DHT22;27925;41.874;12.526;2023-07-31T00:46:41;27.40;78.70
40538;DHT22;27925;41.874;12.526;2023-07-31T00:49:07;27.40;78.90
40538;DHT22;27925;41.874;12.526;2023-07-31T00:51:34;27.40;78.80
40538;DHT22;27925;41.874;12.526;2023-07-31T00:54:00;27.30;78.90
40538;DHT22;27925;41.874;12.526;2023-07-31T00:56:26;27.30;79.00
40538;DHT22;27925;41.874;12.526;2023-07-31T00:58:53;27.30;79.00
40538;DHT22;27925;41.874;12.526;2023-07-31T01:01:18;27.30;78.90
40538;DHT22;27925;41.874;12.526;2023-07-31T01:03:44;27.40;78.80
40538;DHT22;27925;41.874;12.526;2023-07-31T01:06:44;27.40;78.40
40538;DHT22;27925;41.874;12.526;2023-07-31T01:12:02;27.30;78.20
40538;DHT22;27925;41.874;12.526;2023-07-31T01:14:28;27.30;78.70
40538;DHT22;27925;41.874;12.526;2023-07-31T01:16:54;27.30;78.30
40538;DHT22;27925;41.874;12.526;2023-07-31T01:19:24;27.40;78.00
40538;DHT22;27925;41.874;12.526;2023-07-31T01:27:30;27.30;77.80
40538;DHT22;27925;41.874;12.526;2023-07-31T01:29:57;27.30;77.70
40538;DHT22;27925;41.874;12.526;2023-07-31T01:32:25;27.30;78.30
40538;DHT22;27925;41.874;12.526;2023-07-31T01:34:53;27.30;77.60
40538;DHT22;27925;41.874;12.526;2023-07-31T01:37:20;27.30;77.50
40538;DHT22;27925;41.874;12.526;2023-07-31T01:39:46;27.30;77.50
40538;DHT22;27925;41.874;12.526;2023-07-31T01:42:11;27.30;77.60
40538;DHT22;27925;41.874;12.526;2023-07-31T01:44:37;27.30;77.70
40538;DHT22;27925;41.874;12.526;2023-07-31T01:47:03;27.30;77.80
40538;DHT22;27925;41.874;12.526;2023-07-31T01:49:28;27.30;77.70
40538;DHT22;27925;41.874;12.526;2023-07-31T01:51:54;27.30;77.50
40538;DHT22;27925;41.874;12.526;2023-07-31T01:54:20;27.30;77.80
40538;DHT22;27925;41.874;12.526;2023-07-31T01:56:45;27.20;77.80
40538;DHT22;27925;41.874;12.526;2023-07-31T01:59:11;27.20;77.80
40538;DHT22;27925;41.874;12.526;2023-07-31T02:01:37;27.10;77.60
40538;DHT22;27925;41.874;12.526;2023-07-31T02:04:02;27.10;77.80
40538;DHT22;27925;41.874;12.526;2023-07-31T02:06:30;27.20;77.90
40538;DHT22;27925;41.874;12.526;2023-07-31T02:08:56;27.20;77.50
40538;DHT22;27925;41.874;12.526;2023-07-31T02:11:21;27.10;77.70
40538;DHT22;27925;41.874;12.526;2023-07-31T02:13:47;27.10;77.60
40538;DHT22;27925;41.874;12.526;2023-07-31T02:16:13;27.10;77.50
40538;DHT22;27925;41.874;12.526;2023-07-31T02:18:38;27.00;77.50
40538;DHT22;27925;41.874;12.526;2023-07-31T02:21:04;26.90;77.70
40538;DHT22;27925;41.874;12.526;2023-07-31T02:23:30;26.80;77.80
40538;DHT22;27925;41.874;12.526;2023-07-31T02:25:55;26.80;77.70
40538;DHT22;27925;41.874;12.526;2023-07-31T02:28:21;26.80;78.00
40538;DHT22;27925;41.874;12.526;2023-07-31T02:30:47;26.80;77.80
40538;DHT22;27925;41.874;12.526;2023-07-31T02:33:14;26.80;77.50
40538;DHT22;27925;41.874;12.526;2023-07-31T02:35:40;26.80;77.40
40538;DHT22;27925;41.874;12.526;2023-07-31T02:38:05;26.80;77.50
40538;DHT22;27925;41.874;12.526;2023-07-31T02:40:31;26.70;77.60
40538;DHT22;27925;41.874;12.526;2023-07-31T02:42:57;26.70;77.60
40538;DHT22;27925;41.874;12.526;2023-07-31T02:45:23;26.70;77.50
40538;DHT22;27925;41.874;12.526;2023-07-31T02:47:48;26.70;77.50
40538;DHT22;27925;41.874;12.526;2023-07-31T02:50:14;26.60;77.70
40538;DHT22;27925;41.874;12.526;2023-07-31T02:52:40;26.60;78.20
40538;DHT22;27925;41.874;12.526;2023-07-31T02:55:06;26.50;77.70
40538;DHT22;27925;41.874;12.526;2023-07-31T02:57:32;26.60;77.60
40538;DHT22;27925;41.874;12.526;2023-07-31T02:59:57;26.60;77.60
40538;DHT22;27925;41.874;12.526;2023-07-31T03:02:23;26.60;77.40
40538;DHT22;27925;41.874;12.526;2023-07-31T03:04:49;26.60;77.30
40538;DHT22;27925;41.874;12.526;2023-07-31T03:07:14;26.60;77.30
40538;DHT22;27925;41.874;12.526;2023-07-31T03:09:40;26.60;77.40
40538;DHT22;27925;41.874;12.526;2023-07-31T03:12:06;26.60;77.20
40538;DHT22;27925;41.874;12.526;2023-07-31T03:14:32;26.60;77.20
40538;DHT22;27925;41.874;12.526;2023-07-31T03:16:58;26.60;77.40
40538;DHT22;27925;41.874;12.526;2023-07-31T03:19:24;26.50;77.40
40538;DHT22;27925;41.874;12.526;2023-07-31T03:21:50;26.50;77.20
40538;DHT22;27925;41.874;12.526;2023-07-31T03:24:15;26.50;77.00
40538;DHT22;27925;41.874;12.526;2023-07-31T03:26:41;26.50;77.00
40538;DHT22;27925;41.874;12.526;2023-07-31T03:29:08;26.50;77.00
40538;DHT22;27925;41.874;12.526;2023-07-31T03:31:33;26.40;77.20
40538;DHT22;27925;41.874;12.526;2023-07-31T03:33:59;26.40;76.80
40538;DHT22;27925;41.874;12.526;2023-07-31T03:36:25;26.30;76.80
40538;DHT22;27925;41.874;12.526;2023-07-31T03:38:52;26.30;77.40
40538;DHT22;27925;41.874;12.526;2023-07-31T03:41:17;26.30;76.60
40538;DHT22;27925;41.874;12.526;2023-07-31T03:43:43;26.30;76.90
40538;DHT22;27925;41.874;12.526;2023-07-31T03:46:09;26.30;77.20
40538;DHT22;27925;41.874;12.526;2023-07-31T03:48:34;26.30;77.00
40538;DHT22;27925;41.874;12.526;2023-07-31T03:51:00;26.30;77.10
40538;DHT22;27925;41.874;12.526;2023-07-31T03:53:26;26.20;77.30
40538;DHT22;27925;41.874;12.526;2023-07-31T03:55:51;26.20;77.60
40538;DHT22;27925;41.874;12.526;2023-07-31T03:58:17;26.20;77.80
40538;DHT22;27925;41.874;12.526;2023-07-31T04:00:43;26.20;77.80
40538;DHT22;27925;41.874;12.526;2023-07-31T04:03:08;26.20;77.90
40538;DHT22;27925;41.874;12.526;2023-07-31T04:05:38;26.10;78.50
40538;DHT22;27925;41.874;12.526;2023-07-31T04:08:05;26.10;78.30
40538;DHT22;27925;41.874;12.526;2023-07-31T04:10:31;26.10;78.50
40538;DHT22;27925;41.874;12.526;2023-07-31T04:12:59;26.00;78.90
40538;DHT22;27925;41.874;12.526;2023-07-31T04:15:24;26.00;79.20
40538;DHT22;27925;41.874;12.526;2023-07-31T04:17:50;26.00;79.60
40538;DHT22;27925;41.874;12.526;2023-07-31T04:20:16;26.00;79.20
40538;DHT22;27925;41.874;12.526;2023-07-31T04:22:41;26.00;79.60
40538;DHT22;27925;41.874;12.526;2023-07-31T04:25:07;26.00;79.80
40538;DHT22;27925;41.874;12.526;2023-07-31T04:27:33;25.90;80.00
40538;DHT22;27925;41.874;12.526;2023-07-31T04:29:59;25.80;80.30
40538;DHT22;27925;41.874;12.526;2023-07-31T04:32:24;25.80;80.50
40538;DHT22;27925;41.874;12.526;2023-07-31T04:34:50;25.70;80.60
40538;DHT22;27925;41.874;12.526;2023-07-31T04:37:16;25.80;80.50
40538;DHT22;27925;41.874;12.526;2023-07-31T04:39:41;25.80;80.50
40538;DHT22;27925;41.874;12.526;2023-07-31T04:42:07;25.70;80.30
40538;DHT22;27925;41.874;12.526;2023-07-31T04:44:33;25.80;80.50
40538;DHT22;27925;41.874;12.526;2023-07-31T04:46:58;25.80;80.20
40538;DHT22;27925;41.874;12.526;2023-07-31T04:49:24;25.80;80.10
40538;DHT22;27925;41.874;12.526;2023-07-31T04:51:50;25.90;80.00
40538;DHT22;27925;41.874;12.526;2023-07-31T04:54:15;25.90;79.70
40538;DHT22;27925;41.874;12.526;2023-07-31T04:56:41;26.00;79.80
40538;DHT22;27925;41.874;12.526;2023-07-31T04:59:07;26.00;79.60
40538;DHT22;27925;41.874;12.526;2023-07-31T05:01:33;26.10;80.00
40538;DHT22;27925;41.874;12.526;2023-07-31T05:03:58;26.10;79.50
40538;DHT22;27925;41.874;12.526;2023-07-31T05:06:24;26.10;79.60
40538;DHT22;27925;41.874;12.526;2023-07-31T05:08:50;26.10;79.50
40538;DHT22;27925;41.874;12.526;2023-07-31T05:11:15;26.10;79.50
40538;DHT22;27925;41.874;12.526;2023-07-31T05:13:41;26.10;79.40
40538;DHT22;27925;41.874;12.526;2023-07-31T05:16:07;26.10;79.50
40538;DHT22;27925;41.874;12.526;2023-07-31T05:18:32;26.10;79.40
40538;DHT22;27925;41.874;12.526;2023-07-31T05:20:58;26.10;79.10
40538;DHT22;27925;41.874;12.526;2023-07-31T05:23:24;26.30;78.90
40538;DHT22;27925;41.874;12.526;2023-07-31T05:25:49;26.50;78.50
40538;DHT22;27925;41.874;12.526;2023-07-31T05:28:15;26.80;77.80
40538;DHT22;27925;41.874;12.526;2023-07-31T05:30:41;27.00;77.70
40538;DHT22;27925;41.874;12.526;2023-07-31T05:33:06;27.30;76.60
40538;DHT22;27925;41.874;12.526;2023-07-31T05:35:32;27.60;75.50
40538;DHT22;27925;41.874;12.526;2023-07-31T05:37:58;27.90;74.50
40538;DHT22;27925;41.874;12.526;2023-07-31T05:40:23;28.20;74.00
40538;DHT22;27925;41.874;12.526;2023-07-31T05:42:49;28.30;73.70
40538;DHT22;27925;41.874;12.526;2023-07-31T05:45:14;28.60;73.20
40538;DHT22;27925;41.874;12.526;2023-07-31T05:47:40;28.80;72.40
40538;DHT22;27925;41.874;12.526;2023-07-31T05:50:06;29.10;71.90
40538;DHT22;27925;41.874;12.526;2023-07-31T05:52:32;29.30;71.10
40538;DHT22;27925;41.874;12.526;2023-07-31T05:54:58;29.50;70.90
40538;DHT22;27925;41.874;12.526;2023-07-31T05:57:23;29.80;70.20
40538;DHT22;27925;41.874;12.526;2023-07-31T05:59:49;30.10;69.60
40538;DHT22;27925;41.874;12.526;2023-07-31T06:02:15;30.20;69.10
40538;DHT22;27925;41.874;12.526;2023-07-31T06:04:40;30.30;69.10
40538;DHT22;27925;41.874;12.526;2023-07-31T06:07:06;30.50;68.30
40538;DHT22;27925;41.874;12.526;2023-07-31T06:09:32;30.70;68.10
40538;DHT22;27925;41.874;12.526;2023-07-31T06:11:57;30.90;67.20
40538;DHT22;27925;41.874;12.526;2023-07-31T06:14:24;31.10;66.70
40538;DHT22;27925;41.874;12.526;2023-07-31T06:16:49;31.30;65.90
40538;DHT22;27925;41.874;12.526;2023-07-31T06:19:15;31.30;65.40
40538;DHT22;27925;41.874;12.526;2023-07-31T06:21:41;31.40;65.20
40538;DHT22;27925;41.874;12.526;2023-07-31T06:24:08;31.50;64.90
40538;DHT22;27925;41.874;12.526;2023-07-31T06:26:34;31.80;64.70
40538;DHT22;27925;41.874;12.526;2023-07-31T06:29:00;31.90;64.30
40538;DHT22;27925;41.874;12.526;2023-07-31T06:31:26;32.10;63.90
40538;DHT22;27925;41.874;12.526;2023-07-31T06:33:52;32.10;63.20
40538;DHT22;27925;41.874;12.526;2023-07-31T06:36:18;32.10;62.90
40538;DHT22;27925;41.874;12.526;2023-07-31T06:38:44;32.10;63.00
40538;DHT22;27925;41.874;12.526;2023-07-31T06:41:10;32.20;62.60
40538;DHT22;27925;41.874;12.526;2023-07-31T06:43:36;32.20;62.00
40538;DHT22;27925;41.874;12.526;2023-07-31T06:46:08;32.30;62.00
40538;DHT22;27925;41.874;12.526;2023-07-31T06:48:34;32.30;61.80
40538;DHT22;27925;41.874;12.526;2023-07-31T06:51:03;32.30;61.30
40538;DHT22;27925;41.874;12.526;2023-07-31T06:53:28;32.40;61.50
40538;DHT22;27925;41.874;12.526;2023-07-31T06:55:55;32.60;61.00
40538;DHT22;27925;41.874;12.526;2023-07-31T06:58:20;32.70;60.80
40538;DHT22;27925;41.874;12.526;2023-07-31T07:00:46;32.70;60.50
40538;DHT22;27925;41.874;12.526;2023-07-31T07:03:12;32.70;60.40
40538;DHT22;27925;41.874;12.526;2023-07-31T07:05:40;32.70;60.10
40538;DHT22;27925;41.874;12.526;2023-07-31T07:08:06;32.90;59.70
40538;DHT22;27925;41.874;12.526;2023-07-31T07:10:31;32.90;59.50
40538;DHT22;27925;41.874;12.526;2023-07-31T07:12:57;33.00;59.10
40538;DHT22;27925;41.874;12.526;2023-07-31T07:15:23;33.10;58.90
40538;DHT22;27925;41.874;12.526;2023-07-31T07:17:48;33.00;59.00
40538;DHT22;27925;41.874;12.526;2023-07-31T07:20:14;32.90;58.90
40538;DHT22;27925;41.874;12.526;2023-07-31T07:22:40;32.90;59.10
40538;DHT22;27925;41.874;12.526;2023-07-31T07:25:08;32.80;58.70
40538;DHT22;27925;41.874;12.526;2023-07-31T07:27:34;33.00;58.90
40538;DHT22;27925;41.874;12.526;2023-07-31T07:30:00;33.00;58.30
40538;DHT22;27925;41.874;12.526;2023-07-31T07:32:26;33.00;58.20
40538;DHT22;27925;41.874;12.526;2023-07-31T07:34:51;33.00;58.10
40538;DHT22;27925;41.874;12.526;2023-07-31T07:37:17;32.90;58.30
40538;DHT22;27925;41.874;12.526;2023-07-31T07:39:43;32.90;58.10
40538;DHT22;27925;41.874;12.526;2023-07-31T07:42:09;32.90;57.80
40538;DHT22;27925;41.874;12.526;2023-07-31T07:44:35;32.90;57.50
40538;DHT22;27925;41.874;12.526;2023-07-31T07:47:00;32.90;57.30
40538;DHT22;27925;41.874;12.526;2023-07-31T07:49:26;32.80;57.60
40538;DHT22;27925;41.874;12.526;2023-07-31T07:51:51;32.70;58.20
40538;DHT22;27925;41.874;12.526;2023-07-31T07:54:17;32.70;57.60
40538;DHT22;27925;41.874;12.526;2023-07-31T07:56:43;32.70;57.50
40538;DHT22;27925;41.874;12.526;2023-07-31T07:59:09;32.80;57.10
40538;DHT22;27925;41.874;12.526;2023-07-31T08:01:34;32.70;57.20
40538;DHT22;27925;41.874;12.526;2023-07-31T08:04:00;32.80;57.00
40538;DHT22;27925;41.874;12.526;2023-07-31T08:06:26;32.80;56.90
40538;DHT22;27925;41.874;12.526;2023-07-31T08:08:51;32.70;57.00
40538;DHT22;27925;41.874;12.526;2023-07-31T08:11:17;32.60;56.90
40538;DHT22;27925;41.874;12.526;2023-07-31T08:13:43;32.50;56.90
40538;DHT22;27925;41.874;12.526;2023-07-31T08:16:09;32.50;57.30
40538;DHT22;27925;41.874;12.526;2023-07-31T08:18:35;32.40;57.60
40538;DHT22;27925;41.874;12.526;2023-07-31T08:21:02;32.30;57.70
40538;DHT22;27925;41.874;12.526;2023-07-31T08:23:28;32.30;58.00
40538;DHT22;27925;41.874;12.526;2023-07-31T08:25:54;32.20;58.10
40538;DHT22;27925;41.874;12.526;2023-07-31T08:28:19;32.10;58.30
40538;DHT22;27925;41.874;12.526;2023-07-31T08:30:45;32.10;58.60
40538;DHT22;27925;41.874;12.526;2023-07-31T08:33:11;32.00;58.30
40538;DHT22;27925;41.874;12.526;2023-07-31T08:35:36;32.00;58.20
40538;DHT22;27925;41.874;12.526;2023-07-31T08:38:02;32.00;58.10
40538;DHT22;27925;41.874;12.526;2023-07-31T08:40:29;31.90;57.90
40538;DHT22;27925;41.874;12.526;2023-07-31T08:42:55;31.90;57.80
40538;DHT22;27925;41.874;12.526;2023-07-31T08:45:28;31.80;57.90
40538;DHT22;27925;41.874;12.526;2023-07-31T08:47:55;31.80;57.70
40538;DHT22;27925;41.874;12.526;2023-07-31T08:50:21;31.70;57.20
40538;DHT22;27925;41.874;12.526;2023-07-31T08:52:48;31.60;57.10
40538;DHT22;27925;41.874;12.526;2023-07-31T08:55:14;31.70;56.80
40538;DHT22;27925;41.874;12.526;2023-07-31T08:57:42;31.70;56.00
40538;DHT22;27925;41.874;12.526;2023-07-31T09:00:09;31.60;55.60
40538;DHT22;27925;41.874;12.526;2023-07-31T09:02:45;31.60;55.30
40538;DHT22;27925;41.874;12.526;2023-07-31T09:05:11;31.70;54.70
40538;DHT22;27925;41.874;12.526;2023-07-31T09:07:38;31.70;54.10
40538;DHT22;27925;41.874;12.526;2023-07-31T09:10:05;31.70;53.30
40538;DHT22;27925;41.874;12.526;2023-07-31T09:12:31;31.70;51.80
40538;DHT22;27925;41.874;12.526;2023-07-31T09:15:00;31.60;51.70
40538;DHT22;27925;41.874;12.526;2023-07-31T09:17:33;31.60;51.20
40538;DHT22;27925;41.874;12.526;2023-07-31T09:20:19;31.60;50.90
40538;DHT22;27925;41.874;12.526;2023-07-31T09:22:47;31.60;50.60
40538;DHT22;27925;41.874;12.526;2023-07-31T09:25:26;31.60;51.00
40538;DHT22;27925;41.874;12.526;2023-07-31T09:30:24;31.80;49.50
40538;DHT22;27925;41.874;12.526;2023-07-31T09:32:52;31.90;51.00
40538;DHT22;27925;41.874;12.526;2023-07-31T09:35:21;31.90;51.10
40538;DHT22;27925;41.874;12.526;2023-07-31T09:37:51;31.90;50.40
40538;DHT22;27925;41.874;12.526;2023-07-31T09:42:55;31.90;49.70
40538;DHT22;27925;41.874;12.526;2023-07-31T09:45:21;31.90;49.30
40538;DHT22;27925;41.874;12.526;2023-07-31T09:47:48;32.10;49.50
40538;DHT22;27925;41.874;12.526;2023-07-31T09:50:14;32.10;48.50
40538;DHT22;27925;41.874;12.526;2023-07-31T09:52:41;32.20;48.10
40538;DHT22;27925;41.874;12.526;2023-07-31T09:55:08;32.20;47.80
40538;DHT22;27925;41.874;12.526;2023-07-31T09:57:38;32.30;47.30
40538;DHT22;27925;41.874;12.526;2023-07-31T10:00:05;32.30;47.20
40538;DHT22;27925;41.874;12.526;2023-07-31T10:02:32;32.40;46.90
40538;DHT22;27925;41.874;12.526;2023-07-31T10:04:59;32.40;46.70
40538;DHT22;27925;41.874;12.526;2023-07-31T10:07:28;32.40;45.60
40538;DHT22;27925;41.874;12.526;2023-07-31T10:09:57;32.50;44.50
40538;DHT22;27925;41.874;12.526;2023-07-31T10:12:26;32.50;44.40
40538;DHT22;27925;41.874;12.526;2023-07-31T10:14:56;32.60;43.00
40538;DHT22;27925;41.874;12.526;2023-07-31T10:17:23;32.70;42.90
40538;DHT22;27925;41.874;12.526;2023-07-31T10:19:49;32.80;42.60
40538;DHT22;27925;41.874;12.526;2023-07-31T10:22:15;32.80;41.80
40538;DHT22;27925;41.874;12.526;2023-07-31T10:24:45;32.90;41.70
40538;DHT22;27925;41.874;12.526;2023-07-31T10:27:12;33.00;41.80
40538;DHT22;27925;41.874;12.526;2023-07-31T10:29:39;33.00;41.50
40538;DHT22;27925;41.874;12.526;2023-07-31T10:32:06;33.10;41.20
40538;DHT22;27925;41.874;12.526;2023-07-31T10:34:35;33.20;39.80
40538;DHT22;27925;41.874;12.526;2023-07-31T10:37:35;33.20;39.70
40538;DHT22;27925;41.874;12.526;2023-07-31T10:42:35;33.20;39.60
40538;DHT22;27925;41.874;12.526;2023-07-31T10:45:06;33.30;39.50
40538;DHT22;27925;41.874;12.526;2023-07-31T10:47:43;33.30;39.40
40538;DHT22;27925;41.874;12.526;2023-07-31T10:50:22;33.30;39.70
40538;DHT22;27925;41.874;12.526;2023-07-31T10:52:52;33.30;39.30
40538;DHT22;27925;41.874;12.526;2023-07-31T10:57:50;33.40;38.80
40538;DHT22;27925;41.874;12.526;2023-07-31T11:03:03;33.40;39.10
40538;DHT22;27925;41.874;12.526;2023-07-31T11:05:47;33.40;39.80
40538;DHT22;27925;41.874;12.526;2023-07-31T11:15:58;33.60;39.60
40538;DHT22;27925;41.874;12.526;2023-07-31T11:18:24;33.60;38.60
40538;DHT22;27925;41.874;12.526;2023-07-31T11:20:51;33.60;38.30
40538;DHT22;27925;41.874;12.526;2023-07-31T11:23:17;33.60;38.70
40538;DHT22;27925;41.874;12.526;2023-07-31T11:25:43;33.70;38.90
40538;DHT22;27925;41.874;12.526;2023-07-31T11:28:10;33.80;38.70
40538;DHT22;27925;41.874;12.526;2023-07-31T11:30:37;33.90;39.20
40538;DHT22;27925;41.874;12.526;2023-07-31T11:33:04;33.90;38.10
40538;DHT22;27925;41.874;12.526;2023-07-31T11:35:44;34.00;37.60
40538;DHT22;27925;41.874;12.526;2023-07-31T11:38:24;34.00;38.60
40538;DHT22;27925;41.874;12.526;2023-07-31T11:40:52;34.00;38.10
40538;DHT22;27925;41.874;12.526;2023-07-31T11:43:18;34.00;37.10
40538;DHT22;27925;41.874;12.526;2023-07-31T11:45:49;34.10;36.70
40538;DHT22;27925;41.874;12.526;2023-07-31T11:48:35;34.10;36.50
40538;DHT22;27925;41.874;12.526;2023-07-31T11:51:03;34.10;37.30
40538;DHT22;27925;41.874;12.526;2023-07-31T11:53:38;34.20;37.10
40538;DHT22;27925;41.874;12.526;2023-07-31T11:56:08;34.20;37.50
40538;DHT22;27925;41.874;12.526;2023-07-31T11:58:36;34.20;36.60
40538;DHT22;27925;41.874;12.526;2023-07-31T12:01:04;34.30;36.70
40538;DHT22;27925;41.874;12.526;2023-07-31T12:03:31;34.30;36.90
40538;DHT22;27925;41.874;12.526;2023-07-31T12:05:58;34.30;36.70
40538;DHT22;27925;41.874;12.526;2023-07-31T12:08:24;34.30;36.90
40538;DHT22;27925;41.874;12.526;2023-07-31T12:10:51;34.40;36.90
40538;DHT22;27925;41.874;12.526;2023-07-31T12:13:25;34.40;36.60
40538;DHT22;27925;41.874;12.526;2023-07-31T12:16:02;34.40;38.10
40538;DHT22;27925;41.874;12.526;2023-07-31T12:18:38;34.60;41.20
40538;DHT22;27925;41.874;12.526;2023-07-31T12:21:08;34.60;45.00
40538;DHT22;27925;41.874;12.526;2023-07-31T12:23:35;34.60;47.50
40538;DHT22;27925;41.874;12.526;2023-07-31T12:26:06;34.60;48.50
40538;DHT22;27925;41.874;12.526;2023-07-31T12:31:02;34.60;50.10
40538;DHT22;27925;41.874;12.526;2023-07-31T12:33:35;34.60;51.00
40538;DHT22;27925;41.874;12.526;2023-07-31T12:36:03;34.60;52.50
40538;DHT22;27925;41.874;12.526;2023-07-31T12:38:30;34.60;53.30
40538;DHT22;27925;41.874;12.526;2023-07-31T12:40:55;34.60;54.10
40538;DHT22;27925;41.874;12.526;2023-07-31T12:43:21;34.60;54.40
40538;DHT22;27925;41.874;12.526;2023-07-31T12:45:47;34.60;54.50
40538;DHT22;27925;41.874;12.526;2023-07-31T12:48:13;34.50;54.80
40538;DHT22;27925;41.874;12.526;2023-07-31T12:50:39;34.50;54.90
40538;DHT22;27925;41.874;12.526;2023-07-31T12:53:05;34.60;55.00
40538;DHT22;27925;41.874;12.526;2023-07-31T12:55:32;34.60;55.10
40538;DHT22;27925;41.874;12.526;2023-07-31T12:58:00;34.60;55.30
40538;DHT22;27925;41.874;12.526;2023-07-31T13:00:26;34.60;55.90
40538;DHT22;27925;41.874;12.526;2023-07-31T13:02:52;34.60;56.10
40538;DHT22;27925;41.874;12.526;2023-07-31T13:05:19;34.60;56.20
40538;DHT22;27925;41.874;12.526;2023-07-31T13:07:48;34.70;55.20
40538;DHT22;27925;41.874;12.526;2023-07-31T13:10:14;34.60;55.80
40538;DHT22;27925;41.874;12.526;2023-07-31T13:12:40;34.60;56.30
40538;DHT22;27925;41.874;12.526;2023-07-31T13:15:06;34.50;56.30
40538;DHT22;27925;41.874;12.526;2023-07-31T13:17:32;34.50;56.40
40538;DHT22;27925;41.874;12.526;2023-07-31T13:19:58;34.50;56.60
40538;DHT22;27925;41.874;12.526;2023-07-31T13:22:24;34.50;57.20
40538;DHT22;27925;41.874;12.526;2023-07-31T13:24:50;34.50;57.20
40538;DHT22;27925;41.874;12.526;2023-07-31T13:27:16;34.50;56.80
40538;DHT22;27925;41.874;12.526;2023-07-31T13:29:44;34.50;56.90
40538;DHT22;27925;41.874;12.526;2023-07-31T13:32:10;34.60;57.00
40538;DHT22;27925;41.874;12.526;2023-07-31T13:34:36;34.60;56.60
40538;DHT22;27925;41.874;12.526;2023-07-31T13:37:02;34.60;56.30
40538;DHT22;27925;41.874;12.526;2023-07-31T13:39:28;34.60;56.30
40538;DHT22;27925;41.874;12.526;2023-07-31T13:41:54;34.60;56.70
40538;DHT22;27925;41.874;12.526;2023-07-31T13:44:20;34.50;56.70
40538;DHT22;27925;41.874;12.526;2023-07-31T13:46:46;34.50;56.90
40538;DHT22;27925;41.874;12.526;2023-07-31T13:49:11;34.40;56.70
40538;DHT22;27925;41.874;12.526;2023-07-31T13:51:37;34.50;56.80
40538;DHT22;27925;41.874;12.526;2023-07-31T13:54:05;34.50;56.80
40538;DHT22;27925;41.874;12.526;2023-07-31T13:56:32;34.50;56.90
40538;DHT22;27925;41.874;12.526;2023-07-31T13:58:58;34.50;56.80
40538;DHT22;27925;41.874;12.526;2023-07-31T14:01:26;34.50;56.70
40538;DHT22;27925;41.874;12.526;2023-07-31T14:03:51;34.40;56.90
40538;DHT22;27925;41.874;12.526;2023-07-31T14:06:17;34.40;56.90
40538;DHT22;27925;41.874;12.526;2023-07-31T14:08:43;34.40;56.80
40538;DHT22;27925;41.874;12.526;2023-07-31T14:11:08;34.50;56.80
40538;DHT22;27925;41.874;12.526;2023-07-31T14:13:34;34.50;56.80
40538;DHT22;27925;41.874;12.526;2023-07-31T14:16:00;34.50;56.50
40538;DHT22;27925;41.874;12.526;2023-07-31T14:18:25;34.60;56.50
40538;DHT22;27925;41.874;12.526;2023-07-31T14:20:51;34.60;56.40
40538;DHT22;27925;41.874;12.526;2023-07-31T14:23:17;34.60;56.20
40538;DHT22;27925;41.874;12.526;2023-07-31T14:25:45;34.60;56.30
40538;DHT22;27925;41.874;12.526;2023-07-31T14:28:11;34.50;56.30
40538;DHT22;27925;41.874;12.526;2023-07-31T14:30:37;34.60;56.20
40538;DHT22;27925;41.874;12.526;2023-07-31T14:33:02;34.60;56.30
40538;DHT22;27925;41.874;12.526;2023-07-31T14:35:28;34.60;56.50
40538;DHT22;27925;41.874;12.526;2023-07-31T14:37:54;34.50;56.40
40538;DHT22;27925;41.874;12.526;2023-07-31T14:40:20;34.50;56.50
40538;DHT22;27925;41.874;12.526;2023-07-31T14:42:45;34.50;56.60
40538;DHT22;27925;41.874;12.526;2023-07-31T14:45:11;34.50;56.60
40538;DHT22;27925;41.874;12.526;2023-07-31T14:47:37;34.50;56.20
40538;DHT22;27925;41.874;12.526;2023-07-31T14:50:03;34.50;56.20
40538;DHT22;27925;41.874;12.526;2023-07-31T14:52:29;34.50;55.70
40538;DHT22;27925;41.874;12.526;2023-07-31T14:54:55;34.50;55.30
40538;DHT22;27925;41.874;12.526;2023-07-31T14:57:21;34.50;54.80
40538;DHT22;27925;41.874;12.526;2023-07-31T14:59:47;34.40;54.70
40538;DHT22;27925;41.874;12.526;2023-07-31T15:02:14;34.40;54.50
40538;DHT22;27925;41.874;12.526;2023-07-31T15:04:40;34.40;54.60
40538;DHT22;27925;41.874;12.526;2023-07-31T15:07:06;34.40;54.30
40538;DHT22;27925;41.874;12.526;2023-07-31T15:09:31;34.40;54.40
40538;DHT22;27925;41.874;12.526;2023-07-31T15:11:57;34.20;53.80
40538;DHT22;27925;41.874;12.526;2023-07-31T15:14:24;34.20;53.60
40538;DHT22;27925;41.874;12.526;2023-07-31T15:16:49;34.20;53.50
40538;DHT22;27925;41.874;12.526;2023-07-31T15:19:15;34.20;53.20
40538;DHT22;27925;41.874;12.526;2023-07-31T15:21:41;34.20;53.20
40538;DHT22;27925;41.874;12.526;2023-07-31T15:24:07;34.30;53.10
40538;DHT22;27925;41.874;12.526;2023-07-31T15:26:33;34.20;53.00
40538;DHT22;27925;41.874;12.526;2023-07-31T15:29:06;34.20;53.10
40538;DHT22;27925;41.874;12.526;2023-07-31T15:31:39;34.20;51.70
40538;DHT22;27925;41.874;12.526;2023-07-31T15:34:05;34.20;51.70
40538;DHT22;27925;41.874;12.526;2023-07-31T15:36:31;34.20;53.10
40538;DHT22;27925;41.874;12.526;2023-07-31T15:38:57;34.10;53.00
40538;DHT22;27925;41.874;12.526;2023-07-31T15:41:23;34.10;52.60
40538;DHT22;27925;41.874;12.526;2023-07-31T15:43:49;34.10;52.70